Aeroporto :
LOGIN :

Iscrizione | Disclaimer

   EN    FR    IT 

 










Sommario :    VFR   VFR Marginale   IFR   IFR Intensivo   IFR Molto Intensivo
Visibilità : 
Base nubi : 
>= 8 km
>= 3000ft
5 / 8 km
1000 / 3000 ft
1500m / 5 km
500 / 1000 ft
800 / 1500m
200 / 500 ft
< 800m
< 200 ft
Simboli :   Temporali  Nebbia  Neve Forte  Precipitazioni Forti  Vento > 20 kt
SIGMETs :   Varie  Temporali  Ghiacco  Turbolenza  Onda orograficha  Ceneri Vulcaniche






- Altitudine del aeroporto : 587 ft
- Codice IATA : XCR


LFOK - Chalons Vatry

ULTIMO METAR :
  • 121330Z AUTO 18018KT 9999 -RA FEW040/// BKN050/// BKN062/// ///TCU 05/03 Q0999 BECMG SCT013 BKN030

METARs OBSOLETI :
  • 121300Z AUTO 18018KT 9999 SCT013 SCT048 BKN092 04/03 Q1000 NOSIG
  • 121230Z AUTO 18018KT 9999 BKN012 BKN096 BKN130 04/03 Q1001 BECMG SCT013 BKN030
  • 121200Z AUTO 19017KT 9999 BKN011 OVC140 04/03 Q1002 BECMG SCT013 BKN030
  • 121130Z AUTO 19016KT 9999 OVC011 04/02 Q1003 BECMG SCT013 BKN030
  • 121100Z AUTO 20018KT 9999 OVC010 04/02 Q1004 BECMG SCT013 BKN020

TAF TAF LFOK
Valido dal 12 a 12 ore il 13 a 12 ore UTC


121100Z 1212/1312 17018KT 9999 BKN010
BECMG 1212/1214 SCT013 BKN030
TEMPO 1218/1222 17020G35KT 4000 RA
FM122200 23017G27KT 3000 RA OVC006
FM130500 24020G35KT 9999 BKN030
TEMPO 1305/1312 3000 SHRA BKN030CB



MetMap, La meteo Aeronautica in un colpo d'occhio ! - Copyright ORBIFLY Dicembre 2007 - Disclaimer

ORBIFLY MET'MAP TEAM :

Programmazione e sviluppo : Alexandra Zaïnal
Concezione : Baudouin d'Aumeries
Aiuto per la programmazione : Marc-Olivier Méhu
Supporto tecnico e logistico : Manuel Goepfert
Aiuto per la traduzione : Arnaldo La Scala

Contatto : metmap@orbifly.com




FONTI E CREDITI :

   NOAA